createdAt,value
2022-09-15T00:02:22.252Z,98151.84
2022-09-15T00:04:49.175Z,98142.41
2022-09-15T00:07:16.106Z,98152.25
2022-09-15T00:09:42.993Z,98146.72
2022-09-15T00:12:10.083Z,98148.97
2022-09-15T00:14:36.956Z,98142.22
2022-09-15T00:17:05.637Z,98143.00
2022-09-15T00:19:32.601Z,98147.94
2022-09-15T00:21:59.407Z,98146.91
2022-09-15T00:24:26.366Z,98146.91
2022-09-15T00:26:53.364Z,98144.66
2022-09-15T00:29:20.626Z,98140.13
2022-09-15T00:31:47.426Z,98145.91
2022-09-15T00:34:16.276Z,98145.69
2022-09-15T00:36:43.076Z,98139.13
2022-09-15T00:39:09.948Z,98141.16
2022-09-15T00:41:39.102Z,98142.59
2022-09-15T00:44:27.230Z,98147.28
2022-09-15T00:47:15.645Z,98139.28
2022-09-15T00:49:47.407Z,98142.34
2022-09-15T00:52:15.932Z,98140.47
2022-09-15T00:54:46.698Z,98136.59
2022-09-15T00:57:26.017Z,98137.19
2022-09-15T00:59:55.909Z,98146.44
2022-09-15T01:02:26.993Z,98138.25
2022-09-15T01:04:58.552Z,98135.78
2022-09-15T01:07:35.156Z,98145.00
2022-09-15T01:10:06.366Z,98139.50
2022-09-15T01:12:33.533Z,98132.47
2022-09-15T01:15:01.116Z,98135.34
2022-09-15T01:17:36.780Z,98128.78
2022-09-15T01:20:34.091Z,98135.53
2022-09-15T01:23:20.256Z,98130.03
2022-09-15T01:26:13.759Z,98126.47
2022-09-15T01:29:01.934Z,98121.56
2022-09-15T01:31:37.108Z,98125.88
2022-09-15T01:34:11.648Z,98123.59
2022-09-15T01:36:45.149Z,98126.72
2022-09-15T01:39:16.423Z,98115.81
2022-09-15T01:41:47.319Z,98115.22
2022-09-15T01:44:18.554Z,98107.22
2022-09-15T01:46:50.324Z,98103.91
2022-09-15T01:49:21.093Z,98100.66
2022-09-15T01:51:50.854Z,98093.66
2022-09-15T01:54:21.688Z,98094.28
2022-09-15T01:56:48.526Z,98095.13
2022-09-15T01:59:15.709Z,98103.69
2022-09-15T02:01:51.674Z,98102.25
2022-09-15T02:04:23.081Z,98106.78
2022-09-15T02:06:55.657Z,98108.19
2022-09-15T02:09:26.589Z,98105.91
2022-09-15T02:12:02.552Z,98113.88
2022-09-15T02:14:48.152Z,98111.84
2022-09-15T02:17:19.624Z,98116.94
2022-09-15T02:19:48.778Z,98118.72
2022-09-15T02:22:23.554Z,98109.47
2022-09-15T02:24:57.088Z,98112.59
2022-09-15T02:27:27.470Z,98109.72
2022-09-15T02:29:59.072Z,98117.09
2022-09-15T02:32:30.301Z,98114.25
2022-09-15T02:35:03.215Z,98113.84
2022-09-15T02:37:30.111Z,98116.31
2022-09-15T02:39:58.895Z,98108.53
2022-09-15T02:42:27.459Z,98109.78
2022-09-15T02:44:54.369Z,98110.25
2022-09-15T02:47:21.565Z,98112.91
2022-09-15T02:49:49.807Z,98106.53
2022-09-15T02:52:16.967Z,98107.56
2022-09-15T02:54:43.742Z,98107.56
2022-09-15T02:57:10.730Z,98106.91
2022-09-15T02:59:56.127Z,98103.03
2022-09-15T03:02:23.641Z,98108.16
2022-09-15T03:04:51.832Z,98110.59
2022-09-15T03:07:18.975Z,98115.75
2022-09-15T03:09:46.587Z,98109.16
2022-09-15T03:12:13.811Z,98106.50
2022-09-15T03:14:40.579Z,98105.91
2022-09-15T03:17:07.425Z,98104.44
2022-09-15T03:19:34.232Z,98096.03
2022-09-15T03:22:02.434Z,98098.34
2022-09-15T03:24:29.432Z,98106.53
2022-09-15T03:26:56.277Z,98102.81
2022-09-15T03:29:23.426Z,98106.13
2022-09-15T03:31:50.286Z,98098.69
2022-09-15T03:34:17.242Z,98096.28
2022-09-15T03:36:44.051Z,98097.50
2022-09-15T03:39:13.104Z,98095.00
2022-09-15T03:41:39.948Z,98098.63
2022-09-15T03:44:07.127Z,98101.09
2022-09-15T03:46:34.070Z,98098.63
2022-09-15T03:49:00.894Z,98092.06
2022-09-15T03:51:27.825Z,98097.38
2022-09-15T03:53:55.626Z,98099.25
2022-09-15T03:56:26.598Z,98094.06
2022-09-15T03:58:54.410Z,98096.50
2022-09-15T04:01:21.708Z,98100.38
2022-09-15T04:03:51.318Z,98104.09
2022-09-15T04:06:19.275Z,98103.28
2022-09-15T04:08:46.201Z,98097.53
2022-09-15T04:11:13.895Z,98095.28
2022-09-15T04:13:42.351Z,98097.38
2022-09-15T04:16:11.657Z,98106.81
2022-09-15T04:18:38.779Z,98110.94
2022-09-15T04:21:10.269Z,98120.88
2022-09-15T04:23:37.183Z,98119.56
2022-09-15T04:26:05.906Z,98107.84
2022-09-15T04:28:34.579Z,98109.72
2022-09-15T04:31:08.699Z,98116.03
2022-09-15T04:33:36.194Z,98123.41
2022-09-15T04:36:06.609Z,98118.47
2022-09-15T04:38:33.794Z,98120.91
2022-09-15T04:41:01.048Z,98116.44
2022-09-15T04:43:28.807Z,98116.63
2022-09-15T04:45:55.881Z,98106.94
2022-09-15T04:48:24.471Z,98110.66
2022-09-15T04:50:51.926Z,98103.09
2022-09-15T04:53:19.185Z,98101.84
2022-09-15T04:55:46.067Z,98105.53
2022-09-15T04:58:13.225Z,98103.69
2022-09-15T05:00:43.592Z,98101.25
2022-09-15T05:03:11.830Z,98107.25
2022-09-15T05:05:40.710Z,98107.25
2022-09-15T05:08:08.277Z,98112.38
2022-09-15T05:10:35.423Z,98109.03
2022-09-15T05:13:02.281Z,98112.72
2022-09-15T05:15:29.121Z,98116.63
2022-09-15T05:17:55.975Z,98112.34
2022-09-15T05:20:22.864Z,98116.22
2022-09-15T05:22:51.093Z,98123.00
2022-09-15T05:25:18.000Z,98118.47
2022-09-15T05:27:45.022Z,98118.13
2022-09-15T05:32:59.395Z,98123.66
2022-09-15T05:35:26.404Z,98114.09
2022-09-15T05:37:54.628Z,98115.50
2022-09-15T05:40:22.721Z,98122.25
2022-09-15T05:42:49.608Z,98124.31
2022-09-15T05:45:16.701Z,98135.81
2022-09-15T05:47:43.611Z,98133.75
2022-09-15T05:50:11.210Z,98136.63
2022-09-15T05:52:38.216Z,98135.41
2022-09-15T05:55:07.038Z,98132.78
2022-09-15T05:57:33.853Z,98142.41
2022-09-15T06:00:00.886Z,98148.75
2022-09-15T06:02:27.745Z,98137.25
2022-09-15T06:04:54.611Z,98139.09
2022-09-15T06:07:21.474Z,98145.84
2022-09-15T06:09:48.300Z,98151.81
2022-09-15T06:12:18.016Z,98138.69
2022-09-15T06:14:45.951Z,98146.03
2022-09-15T06:17:12.820Z,98140.34
2022-09-15T06:19:39.598Z,98140.34
2022-09-15T06:22:06.528Z,98141.97
2022-09-15T06:24:33.428Z,98141.56
2022-09-15T06:27:00.908Z,98141.75
2022-09-15T06:29:36.773Z,98146.06
2022-09-15T06:32:05.193Z,98144.25
2022-09-15T06:34:33.034Z,98152.84
2022-09-15T06:37:00.183Z,98150.59
2022-09-15T06:39:27.188Z,98155.09
2022-09-15T06:42:02.389Z,98151.81
2022-09-15T06:44:32.039Z,98156.53
2022-09-15T06:46:58.992Z,98160.22
2022-09-15T06:49:26.063Z,98155.47
2022-09-15T06:51:52.986Z,98148.94
2022-09-15T06:54:19.890Z,98157.38
2022-09-15T06:56:47.338Z,98165.97
2022-09-15T06:59:15.050Z,98163.69
2022-09-15T07:01:43.357Z,98167.81
2022-09-15T07:04:10.854Z,98174.38
2022-09-15T07:06:39.731Z,98183.38
2022-09-15T07:09:07.191Z,98164.94
2022-09-15T07:11:34.366Z,98168.63
2022-09-15T07:14:01.650Z,98185.84
2022-09-15T07:16:28.700Z,98200.59
2022-09-15T07:18:58.216Z,98205.72
2022-09-15T07:21:25.159Z,98212.06
2022-09-15T07:23:52.373Z,98214.16
2022-09-15T07:26:21.593Z,98227.66
2022-09-15T07:28:50.323Z,98239.06
2022-09-15T07:31:19.117Z,98239.00
2022-09-15T07:33:46.463Z,98262.66
2022-09-15T07:36:15.434Z,98278.41
2022-09-15T07:38:44.241Z,98271.22
2022-09-15T07:41:13.979Z,98275.50
2022-09-15T07:43:45.271Z,98280.78
2022-09-15T07:46:12.292Z,98284.41
2022-09-15T07:48:39.264Z,98284.00
2022-09-15T07:51:06.579Z,98298.09
2022-09-15T07:53:34.814Z,98295.94
2022-09-15T07:56:02.003Z,98295.13
2022-09-15T07:58:29.683Z,98295.13
2022-09-15T08:01:01.878Z,98303.13
2022-09-15T08:03:29.250Z,98310.03
2022-09-15T08:05:58.287Z,98308.69
2022-09-15T08:08:25.365Z,98310.50
2022-09-15T08:10:53.783Z,98318.47
2022-09-15T08:13:20.804Z,98324.56
2022-09-15T08:15:47.908Z,98326.38
2022-09-15T08:18:15.708Z,98331.72
2022-09-15T08:20:43.630Z,98334.63
2022-09-15T08:23:11.332Z,98340.50
2022-09-15T08:25:39.207Z,98344.34
2022-09-15T08:28:07.842Z,98351.06
2022-09-15T08:30:35.409Z,98353.44
2022-09-15T08:33:02.321Z,98365.03
2022-09-15T08:35:30.092Z,98365.03
2022-09-15T08:37:56.965Z,98364.13
2022-09-15T08:40:34.768Z,98363.56
2022-09-15T08:43:13.103Z,98373.81
2022-09-15T08:45:47.790Z,98372.09
2022-09-15T08:48:17.247Z,98380.53
2022-09-15T08:50:46.656Z,98375.84
2022-09-15T08:53:17.874Z,98383.72
2022-09-15T08:55:49.855Z,98387.47
2022-09-15T08:58:20.464Z,98389.56
2022-09-15T09:00:51.768Z,98389.81
2022-09-15T09:03:35.577Z,98390.78
2022-09-15T09:06:12.417Z,98379.00
2022-09-15T09:09:03.312Z,98391.09
2022-09-15T09:11:42.964Z,98388.25
2022-09-15T09:14:19.144Z,98399.47
2022-09-15T09:17:02.919Z,98405.81
2022-09-15T09:19:47.668Z,98410.09
2022-09-15T09:22:20.000Z,98402.28
2022-09-15T09:24:50.065Z,98396.97
2022-09-15T09:27:21.432Z,98409.88
2022-09-15T09:29:54.466Z,98401.41
2022-09-15T09:32:25.303Z,98407.00
2022-09-15T09:35:00.504Z,98404.09
2022-09-15T09:37:27.992Z,98410.47
2022-09-15T09:39:54.864Z,98414.63
2022-09-15T09:42:27.657Z,98406.63
2022-09-15T09:44:56.610Z,98416.81
2022-09-15T09:47:27.603Z,98411.63
2022-09-15T09:49:54.543Z,98411.09
2022-09-15T09:52:34.143Z,98416.28
2022-09-15T09:55:02.388Z,98422.53
2022-09-15T09:57:31.144Z,98421.31
2022-09-15T09:59:59.424Z,98409.59
2022-09-15T10:02:28.116Z,98421.75
2022-09-15T10:05:12.325Z,98418.50
2022-09-15T10:07:43.715Z,98419.69
2022-09-15T10:10:20.479Z,98425.25
2022-09-15T10:12:48.429Z,98426.09
2022-09-15T10:15:24.387Z,98416.16
2022-09-15T10:17:52.814Z,98427.81
2022-09-15T10:20:28.500Z,98423.25
2022-09-15T10:23:04.096Z,98424.91
2022-09-15T10:25:55.053Z,98422.44
2022-09-15T10:28:23.769Z,98424.91
2022-09-15T10:31:07.263Z,98424.88
2022-09-15T10:33:36.383Z,98419.97
2022-09-15T10:36:12.213Z,98423.09
2022-09-15T10:38:42.975Z,98423.88
2022-09-15T10:41:22.468Z,98415.09
2022-09-15T10:44:10.728Z,98420.94
2022-09-15T10:46:49.357Z,98424.13
2022-09-15T10:49:33.538Z,98415.31
2022-09-15T10:52:13.114Z,98415.22
2022-09-15T10:54:54.597Z,98419.16
2022-09-15T10:57:28.115Z,98421.13
2022-09-15T11:00:01.757Z,98425.97
2022-09-15T11:03:08.047Z,98428.16
2022-09-15T11:05:48.943Z,98425.28
2022-09-15T11:08:31.956Z,98429.06
2022-09-15T11:11:07.804Z,98426.72
2022-09-15T11:13:50.320Z,98432.56
2022-09-15T11:16:31.375Z,98430.47
2022-09-15T11:19:14.939Z,98424.16
2022-09-15T11:21:46.215Z,98429.88
2022-09-15T11:24:28.898Z,98428.41
2022-09-15T11:27:00.892Z,98434.84
2022-09-15T11:29:33.918Z,98438.78
2022-09-15T11:32:05.659Z,98440.47
2022-09-15T11:34:39.184Z,98444.25
2022-09-15T11:37:12.173Z,98442.25
2022-09-15T11:39:46.452Z,98452.63
2022-09-15T11:42:20.001Z,98449.88
2022-09-15T11:44:48.241Z,98449.63
2022-09-15T11:47:24.645Z,98453.75
2022-09-15T11:49:57.892Z,98452.97
2022-09-15T11:52:49.629Z,98444.78
2022-09-15T11:55:25.335Z,98447.84
2022-09-15T11:57:59.890Z,98451.81
2022-09-15T12:00:26.961Z,98444.69
2022-09-15T12:03:06.029Z,98450.00
2022-09-15T12:05:39.824Z,98442.75
2022-09-15T12:08:15.358Z,98453.63
2022-09-15T12:10:45.648Z,98451.69
2022-09-15T12:13:16.875Z,98453.03
2022-09-15T12:15:44.369Z,98453.63
2022-09-15T12:18:37.770Z,98448.00
2022-09-15T12:21:15.790Z,98459.44
2022-09-15T12:23:51.042Z,98456.94
2022-09-15T12:26:20.230Z,98457.72
2022-09-15T12:28:58.396Z,98459.16
2022-09-15T12:31:29.271Z,98462.06
2022-09-15T12:33:58.650Z,98460.59
2022-09-15T12:36:44.176Z,98459.31
2022-09-15T12:39:27.980Z,98448.97
2022-09-15T12:41:58.265Z,98453.78
2022-09-15T12:44:32.764Z,98448.94
2022-09-15T12:47:01.709Z,98446.22
2022-09-15T12:49:31.714Z,98454.69
2022-09-15T12:52:03.490Z,98448.47
2022-09-15T12:54:33.152Z,98450.19
2022-09-15T12:57:01.375Z,98453.50
2022-09-15T12:59:29.161Z,98461.50
2022-09-15T13:01:57.583Z,98458.09
2022-09-15T13:04:52.858Z,98456.31
2022-09-15T13:07:54.603Z,98449.84
2022-09-15T13:10:31.227Z,98448.28
2022-09-15T13:13:12.303Z,98453.63
2022-09-15T13:15:46.849Z,98451.72
2022-09-15T13:18:16.037Z,98451.06
2022-09-15T13:20:53.734Z,98452.13
2022-09-15T13:23:27.238Z,98453.88
2022-09-15T13:25:57.914Z,98445.69
2022-09-15T13:28:25.996Z,98442.66
2022-09-15T13:31:34.417Z,98444.63
2022-09-15T13:40:36.534Z,98439.97
2022-09-15T13:43:28.882Z,98438.16
2022-09-15T13:46:12.485Z,98442.25
2022-09-15T13:48:50.180Z,98441.25
2022-09-15T13:51:25.098Z,98434.50
2022-09-15T13:53:56.608Z,98433.25
2022-09-15T13:56:27.825Z,98442.75
2022-09-15T13:59:05.391Z,98432.41
2022-09-15T14:01:41.535Z,98428.91
2022-09-15T14:04:13.397Z,98420.13
2022-09-15T14:06:43.259Z,98426.31
2022-09-15T14:09:15.634Z,98422.59
2022-09-15T14:11:47.616Z,98424.56
2022-09-15T14:14:35.178Z,98414.34
2022-09-15T14:17:02.447Z,98426.94
2022-09-15T14:19:33.806Z,98420.28
2022-09-15T14:22:01.229Z,98426.94
2022-09-15T14:24:30.144Z,98418.94
2022-09-15T14:27:01.490Z,98425.53
2022-09-15T14:29:28.383Z,98417.56
2022-09-15T14:32:00.897Z,98421.03
2022-09-15T14:34:31.812Z,98420.72
2022-09-15T14:37:03.431Z,98417.56
2022-09-15T14:39:31.325Z,98423.00
2022-09-15T14:42:09.335Z,98422.44
2022-09-15T14:47:27.870Z,98414.16
2022-09-15T14:50:08.048Z,98425.50
2022-09-15T14:52:39.456Z,98424.56
2022-09-15T14:55:12.397Z,98422.69
2022-09-15T14:57:45.984Z,98431.78
2022-09-15T15:00:21.309Z,98427.13
2022-09-15T15:03:02.454Z,98422.94
2022-09-15T15:05:35.445Z,98424.34
2022-09-15T15:08:06.905Z,98427.22
2022-09-15T15:10:36.033Z,98429.31
2022-09-15T15:13:09.125Z,98423.69
2022-09-15T15:15:38.316Z,98431.91
2022-09-15T15:18:07.413Z,98432.00
2022-09-15T15:20:34.328Z,98431.56
2022-09-15T15:23:13.827Z,98428.88
2022-09-15T15:25:41.787Z,98425.69
2022-09-15T15:28:30.051Z,98430.72
2022-09-15T15:31:12.329Z,98429.75
2022-09-15T15:33:46.537Z,98428.25
2022-09-15T15:36:13.805Z,98438.84
2022-09-15T15:38:47.008Z,98446.78
2022-09-15T15:41:21.322Z,98439.56
2022-09-15T15:44:03.157Z,98443.66
2022-09-15T15:46:52.497Z,98440.84
2022-09-15T15:49:21.318Z,98451.19
2022-09-15T15:51:48.852Z,98460.59
2022-09-15T15:54:15.790Z,98455.91
2022-09-15T15:56:42.843Z,98456.78
2022-09-15T15:59:12.946Z,98461.16
2022-09-15T16:01:40.225Z,98464.22
2022-09-15T16:04:08.103Z,98463.63
2022-09-15T16:06:35.938Z,98460.94
2022-09-15T16:09:04.906Z,98465.56
2022-09-15T16:11:32.101Z,98461.97
2022-09-15T16:13:59.221Z,98464.94
2022-09-15T16:16:28.021Z,98471.28
2022-09-15T16:18:54.919Z,98473.78
2022-09-15T16:21:28.943Z,98474.59
2022-09-15T16:23:55.838Z,98481.16
2022-09-15T16:26:24.817Z,98474.16
2022-09-15T16:28:52.470Z,98474.38
2022-09-15T16:31:19.526Z,98476.84
2022-09-15T16:33:47.820Z,98480.78
2022-09-15T16:36:16.618Z,98476.56
2022-09-15T16:38:44.181Z,98480.50
2022-09-15T16:41:14.245Z,98473.72
2022-09-15T16:43:41.373Z,98466.41
2022-09-15T16:46:09.884Z,98468.31
2022-09-15T16:48:36.970Z,98471.50
2022-09-15T16:51:23.480Z,98474.03
2022-09-15T16:53:54.530Z,98473.47
2022-09-15T16:56:21.440Z,98470.53
2022-09-15T16:58:48.342Z,98470.00
2022-09-15T17:01:18.159Z,98470.47
2022-09-15T17:03:45.461Z,98469.91
2022-09-15T17:06:14.850Z,98471.44
2022-09-15T17:08:42.111Z,98484.22
2022-09-15T17:11:16.246Z,98474.03
2022-09-15T17:13:44.697Z,98477.97
2022-09-15T17:16:13.946Z,98487.28
2022-09-15T17:18:40.823Z,98482.16
2022-09-15T17:21:10.191Z,98483.44
2022-09-15T17:23:40.383Z,98490.63
2022-09-15T17:26:11.521Z,98475.19
2022-09-15T17:28:38.493Z,98480.53
2022-09-15T17:31:11.327Z,98486.09
2022-09-15T17:33:38.334Z,98491.00
2022-09-15T17:36:05.434Z,98494.91
2022-09-15T17:38:32.847Z,98488.53
2022-09-15T17:41:01.328Z,98490.41
2022-09-15T17:43:29.909Z,98486.69
2022-09-15T17:45:57.484Z,98495.69
2022-09-15T17:48:25.103Z,98506.72
2022-09-15T17:50:52.537Z,98503.63
2022-09-15T17:53:21.444Z,98496.66
2022-09-15T17:55:49.046Z,98496.41
2022-09-15T17:58:18.130Z,98507.06
2022-09-15T18:00:45.900Z,98512.59
2022-09-15T18:03:21.128Z,98511.59
2022-09-15T18:05:48.494Z,98515.88
2022-09-15T18:08:16.497Z,98518.91
2022-09-15T18:10:43.842Z,98519.47
2022-09-15T18:13:14.591Z,98517.41
2022-09-15T18:15:43.368Z,98517.13
2022-09-15T18:18:13.649Z,98532.84
2022-09-15T18:20:40.628Z,98522.31
2022-09-15T18:23:12.852Z,98526.91
2022-09-15T18:25:39.852Z,98526.69
2022-09-15T18:28:06.784Z,98532.47
2022-09-15T18:30:37.146Z,98529.81
2022-09-15T18:33:05.514Z,98533.91
2022-09-15T18:35:32.418Z,98535.00
2022-09-15T18:38:00.109Z,98534.84
2022-09-15T18:40:27.702Z,98540.69
2022-09-15T18:42:56.612Z,98542.22
2022-09-15T18:45:23.753Z,98542.22
2022-09-15T18:47:52.321Z,98545.41
2022-09-15T18:50:23.310Z,98541.84
2022-09-15T18:52:50.794Z,98547.16
2022-09-15T18:55:21.084Z,98549.06
2022-09-15T18:57:48.434Z,98546.53
2022-09-15T19:00:17.430Z,98550.69
2022-09-15T19:02:44.488Z,98541.97
2022-09-15T19:05:12.309Z,98545.72
2022-09-15T19:07:40.561Z,98557.47
2022-09-15T19:10:08.334Z,98555.53
2022-09-15T19:12:35.308Z,98546.53
2022-09-15T19:15:02.238Z,98558.97
2022-09-15T19:17:29.089Z,98561.88
2022-09-15T19:19:55.868Z,98562.56
2022-09-15T19:22:22.725Z,98563.63
2022-09-15T19:24:50.992Z,98568.53
2022-09-15T19:27:17.871Z,98570.94
2022-09-15T19:29:44.752Z,98575.38
2022-09-15T19:32:14.352Z,98579.41
2022-09-15T19:34:42.148Z,98572.69
2022-09-15T19:37:13.074Z,98567.75
2022-09-15T19:39:42.187Z,98575.16
2022-09-15T19:42:11.207Z,98572.69
2022-09-15T19:44:38.327Z,98577.94
2022-09-15T19:47:05.169Z,98583.16
2022-09-15T19:49:32.098Z,98591.44
2022-09-15T19:51:58.900Z,98580.91
2022-09-15T19:54:28.607Z,98588.13
2022-09-15T19:56:56.380Z,98592.09
2022-09-15T19:59:30.191Z,98589.00
2022-09-15T20:01:58.310Z,98583.13
2022-09-15T20:07:09.697Z,98593.38
2022-09-15T20:09:36.482Z,98594.00
2022-09-15T20:12:03.647Z,98599.41
2022-09-15T20:14:31.806Z,98590.91
2022-09-15T20:17:01.164Z,98593.09
2022-09-15T20:19:28.532Z,98593.41
2022-09-15T20:21:55.314Z,98591.94
2022-09-15T20:24:23.584Z,98588.69
2022-09-15T20:26:50.595Z,98595.38
2022-09-15T20:29:18.503Z,98589.63
2022-09-15T20:31:47.611Z,98596.56
2022-09-15T20:34:14.965Z,98595.38
2022-09-15T20:36:41.862Z,98585.72
2022-09-15T20:39:13.035Z,98595.66
2022-09-15T20:41:41.325Z,98593.53
2022-09-15T20:44:09.504Z,98593.94
2022-09-15T20:46:37.111Z,98591.09
2022-09-15T20:49:05.779Z,98592.38
2022-09-15T20:51:33.788Z,98598.94
2022-09-15T20:54:03.546Z,98595.72
2022-09-15T20:56:32.573Z,98598.38
2022-09-15T20:59:00.130Z,98594.44
2022-09-15T21:01:28.991Z,98584.22
2022-09-15T21:03:56.077Z,98584.97
2022-09-15T21:06:27.882Z,98583.84
2022-09-15T21:08:56.631Z,98580.84
2022-09-15T21:11:29.138Z,98587.59
2022-09-15T21:13:57.240Z,98585.50
2022-09-15T21:16:26.450Z,98594.78
2022-09-15T21:18:53.834Z,98590.38
2022-09-15T21:21:22.684Z,98593.84
2022-09-15T21:23:53.411Z,98590.97
2022-09-15T21:26:22.783Z,98593.25
2022-09-15T21:28:49.933Z,98594.75
2022-09-15T21:31:18.993Z,98596.22
2022-09-15T21:33:47.675Z,98593.81
2022-09-15T21:36:23.327Z,98598.66
2022-09-15T21:38:53.424Z,98599.31
2022-09-15T21:41:22.226Z,98606.19
2022-09-15T21:43:54.742Z,98595.38
2022-09-15T21:46:23.857Z,98596.66
2022-09-15T21:48:50.883Z,98601.66
2022-09-15T21:51:24.267Z,98610.31
2022-09-15T21:53:53.682Z,98613.72
2022-09-15T21:56:21.530Z,98611.63
2022-09-15T21:58:48.637Z,98608.06
2022-09-15T22:01:18.936Z,98607.78
2022-09-15T22:03:49.456Z,98613.28
2022-09-15T22:06:16.861Z,98613.81
2022-09-15T22:09:40.073Z,98614.72
2022-09-15T22:12:20.504Z,98603.56
2022-09-15T22:14:47.382Z,98607.84
2022-09-15T22:17:14.175Z,98610.16
2022-09-15T22:19:40.999Z,98612.41
2022-09-15T22:22:07.994Z,98610.41
2022-09-15T22:24:34.916Z,98610.41
2022-09-15T22:27:01.676Z,98612.06
2022-09-15T22:29:29.870Z,98609.38
2022-09-15T22:31:56.683Z,98602.59
2022-09-15T22:34:23.547Z,98608.75
2022-09-15T22:36:50.302Z,98609.75
2022-09-15T22:39:17.497Z,98608.75
2022-09-15T22:41:44.263Z,98607.38
2022-09-15T22:44:18.946Z,98604.72
2022-09-15T22:46:49.698Z,98611.25
2022-09-15T22:49:16.569Z,98605.19
2022-09-15T22:51:43.423Z,98609.78
2022-09-15T22:54:10.262Z,98610.25
2022-09-15T22:56:37.179Z,98616.66
2022-09-15T22:59:03.996Z,98610.41
2022-09-15T23:01:31.152Z,98619.75
2022-09-15T23:04:02.308Z,98616.16
2022-09-15T23:06:31.260Z,98613.41
2022-09-15T23:09:00.347Z,98611.03
2022-09-15T23:11:28.919Z,98602.66
2022-09-15T23:13:56.444Z,98613.56
2022-09-15T23:16:24.525Z,98609.13
2022-09-15T23:18:51.934Z,98611.41
2022-09-15T23:21:20.547Z,98610.56
2022-09-15T23:23:48.960Z,98608.56
2022-09-15T23:26:17.647Z,98607.00
2022-09-15T23:28:44.694Z,98610.44
2022-09-15T23:31:12.926Z,98607.34
2022-09-15T23:33:40.365Z,98595.31
2022-09-15T23:36:09.964Z,98592.00
2022-09-15T23:38:39.980Z,98599.13
2022-09-15T23:41:08.191Z,98601.19
2022-09-15T23:43:35.485Z,98604.81
2022-09-15T23:46:03.186Z,98601.59
2022-09-15T23:48:31.692Z,98607.66
2022-09-15T23:50:58.714Z,98608.13
2022-09-15T23:53:25.610Z,98607.88
2022-09-15T23:55:53.828Z,98612.97
2022-09-15T23:58:20.578Z,98606.97
